createdAt,value
2022-10-08T00:08:16.195Z,1013.53
2022-10-08T00:23:16.231Z,1013.35
2022-10-08T00:38:16.382Z,1013.09
2022-10-08T00:53:16.491Z,1013.06
2022-10-08T01:08:16.615Z,1013.10
2022-10-08T01:23:16.721Z,1013.00
2022-10-08T01:38:16.978Z,1012.89
2022-10-08T01:53:17.044Z,1012.88
2022-10-08T02:08:17.101Z,1012.82
2022-10-08T02:23:17.219Z,1012.63
2022-10-08T02:38:17.364Z,1012.62
2022-10-08T02:53:17.474Z,1012.66
2022-10-08T03:08:18.102Z,1012.77
2022-10-08T03:23:18.182Z,1012.83
2022-10-08T03:38:18.261Z,1012.75
2022-10-08T03:53:18.416Z,1012.85
2022-10-08T04:08:18.516Z,1012.58
2022-10-08T04:23:18.635Z,1012.68
2022-10-08T04:38:18.755Z,1012.77
2022-10-08T04:53:18.866Z,1012.64
2022-10-08T05:08:18.989Z,1012.59
2022-10-08T05:23:20.393Z,1012.62
2022-10-08T05:38:20.983Z,1012.65
2022-10-08T05:53:21.072Z,1012.66
2022-10-08T06:08:21.432Z,1012.77
2022-10-08T06:23:21.933Z,1012.87
2022-10-08T06:38:22.308Z,1012.85
2022-10-08T06:53:22.427Z,1012.97
2022-10-08T07:08:22.371Z,1013.11
2022-10-08T07:23:22.925Z,1013.21
2022-10-08T08:14:51.864Z,1013.59
2022-10-08T08:29:51.946Z,1013.82
2022-10-08T08:44:52.050Z,1013.80
2022-10-08T08:59:52.187Z,1013.88
2022-10-08T09:14:52.273Z,1014.04
2022-10-08T09:29:52.457Z,1014.15
2022-10-08T09:44:52.526Z,1014.22
2022-10-08T09:59:52.674Z,1014.27
2022-10-08T10:14:53.230Z,1014.40
2022-10-08T10:29:53.833Z,1014.45
2022-10-08T10:44:54.438Z,1014.55
2022-10-08T10:59:55.029Z,1014.53
2022-10-08T11:14:55.173Z,1014.56
2022-10-08T11:29:55.209Z,1014.63
2022-10-08T11:44:55.321Z,1014.53
2022-10-08T11:59:55.442Z,1014.48
2022-10-08T12:14:55.575Z,1014.52
2022-10-08T12:29:55.674Z,1014.54
2022-10-08T12:44:56.306Z,1014.48
2022-10-08T12:59:56.861Z,1014.56
2022-10-08T13:14:57.006Z,1014.46
2022-10-08T13:29:57.105Z,1014.56
2022-10-08T13:44:57.207Z,1014.72
2022-10-08T13:59:57.283Z,1014.61
2022-10-08T14:14:57.545Z,1014.66
2022-10-08T14:29:57.516Z,1014.74
2022-10-08T14:44:57.614Z,1014.85
2022-10-08T14:59:57.662Z,1015.11
2022-10-08T15:14:57.769Z,1015.55
2022-10-08T15:29:57.892Z,1015.39
2022-10-08T15:44:57.991Z,1015.67
2022-10-08T15:59:58.100Z,1016.00
2022-10-08T16:14:58.215Z,1016.17
2022-10-08T16:29:58.275Z,1016.39
2022-10-08T16:44:58.881Z,1016.59
2022-10-08T16:59:59.008Z,1016.99
2022-10-08T17:14:59.107Z,1017.15
2022-10-08T17:29:59.209Z,1017.41
2022-10-08T17:44:59.353Z,1017.58
2022-10-08T17:59:59.418Z,1017.74
2022-10-08T18:15:00.020Z,1018.04
2022-10-08T18:30:00.603Z,1018.22
2022-10-08T18:45:00.748Z,1018.31
2022-10-08T19:00:01.379Z,1018.67
2022-10-08T19:15:01.456Z,1018.73
2022-10-08T19:30:01.561Z,1018.94
2022-10-08T19:45:01.676Z,1019.07
2022-10-08T20:00:01.797Z,1019.25
2022-10-08T20:15:02.461Z,1019.52
2022-10-08T20:30:02.554Z,1019.64
2022-10-08T20:45:02.700Z,1019.85
2022-10-08T21:00:02.770Z,1020.14
2022-10-08T21:15:02.875Z,1020.12
2022-10-08T21:30:02.988Z,1020.36
2022-10-08T21:45:03.109Z,1020.41
2022-10-08T22:00:03.248Z,1020.54
2022-10-08T22:15:03.852Z,1020.64
2022-10-08T22:30:03.964Z,1020.79
2022-10-08T22:45:04.193Z,1020.88
2022-10-08T23:00:04.208Z,1020.74
2022-10-08T23:15:04.322Z,1020.85
2022-10-08T23:30:04.512Z,1020.99
2022-10-08T23:45:04.512Z,1021.09
